createdAt,value
2018-03-29T00:00:14.525Z,3.30
2018-03-29T00:02:18.126Z,3.70
2018-03-29T00:04:21.549Z,3.03
2018-03-29T00:06:24.130Z,3.40
2018-03-29T00:08:26.761Z,3.50
2018-03-29T00:10:29.349Z,3.40
2018-03-29T00:12:32.689Z,3.47
2018-03-29T00:14:35.301Z,3.60
2018-03-29T00:16:37.918Z,4.00
2018-03-29T00:18:40.529Z,3.47
2018-03-29T00:20:43.135Z,3.30
2018-03-29T00:22:46.585Z,2.90
2018-03-29T00:24:49.955Z,2.90
2018-03-29T00:26:52.533Z,2.80
2018-03-29T00:28:55.113Z,3.30
2018-03-29T00:30:57.735Z,3.23
2018-03-29T00:33:00.310Z,3.60
2018-03-29T00:35:03.702Z,3.53
2018-03-29T00:37:07.060Z,3.37
2018-03-29T00:39:09.660Z,4.17
2018-03-29T00:41:12.310Z,3.53
2018-03-29T00:43:14.901Z,3.20
2018-03-29T00:45:17.498Z,3.40
2018-03-29T00:47:20.885Z,3.40
2018-03-29T00:49:23.484Z,3.73
2018-03-29T00:51:26.083Z,3.97
2018-03-29T00:53:47.392Z,3.67
2018-03-29T00:55:51.662Z,3.20
2018-03-29T00:57:55.145Z,3.37
2018-03-29T00:59:57.742Z,3.40
2018-03-29T01:02:00.373Z,3.60
2018-03-29T01:04:02.951Z,3.20
2018-03-29T01:06:05.549Z,3.43
2018-03-29T01:08:08.114Z,3.40
2018-03-29T01:10:10.703Z,3.13
2018-03-29T01:12:14.383Z,2.80
2018-03-29T01:14:16.965Z,3.30
2018-03-29T01:16:19.544Z,3.50
2018-03-29T01:18:22.142Z,3.40
2018-03-29T01:20:24.722Z,3.63
2018-03-29T01:22:27.336Z,3.37
2018-03-29T01:24:29.923Z,3.27
2018-03-29T01:26:32.833Z,3.20
2018-03-29T01:28:36.240Z,4.10
2018-03-29T01:30:38.823Z,3.30
2018-03-29T01:32:41.477Z,3.60
2018-03-29T01:34:44.839Z,3.83
2018-03-29T01:36:47.438Z,3.87
2018-03-29T01:38:50.819Z,3.00
2018-03-29T01:40:53.405Z,3.30
2018-03-29T01:42:56.778Z,3.63
2018-03-29T01:44:59.369Z,3.77
2018-03-29T01:47:02.728Z,3.60
2018-03-29T01:49:05.419Z,3.70
2018-03-29T01:51:08.066Z,4.10
2018-03-29T01:53:10.665Z,4.20
2018-03-29T01:55:13.273Z,3.83
2018-03-29T01:57:16.630Z,3.90
2018-03-29T01:59:19.238Z,4.60
2018-03-29T02:01:22.638Z,4.10
2018-03-29T02:03:25.213Z,4.20
2018-03-29T02:05:27.805Z,4.00
2018-03-29T02:07:30.394Z,4.53
2018-03-29T02:09:33.087Z,4.03
2018-03-29T02:11:35.689Z,4.33
2018-03-29T02:13:39.033Z,3.70
2018-03-29T02:15:41.657Z,3.90
2018-03-29T02:17:45.022Z,3.70
2018-03-29T02:19:47.643Z,4.07
2018-03-29T02:21:50.238Z,3.80
2018-03-29T02:23:52.830Z,3.93
2018-03-29T02:25:55.442Z,3.70
2018-03-29T02:27:58.801Z,3.97
2018-03-29T02:30:01.410Z,4.43
2018-03-29T02:32:04.770Z,3.70
2018-03-29T02:34:07.356Z,3.80
2018-03-29T02:36:10.018Z,3.20
2018-03-29T02:38:13.372Z,3.23
2018-03-29T02:40:15.955Z,3.93
2018-03-29T02:42:18.574Z,3.40
2018-03-29T02:44:21.174Z,3.60
2018-03-29T02:46:24.546Z,3.20
2018-03-29T02:48:27.210Z,3.83
2018-03-29T02:50:29.784Z,3.27
2018-03-29T02:52:32.392Z,3.30
2018-03-29T02:54:35.742Z,3.50
2018-03-29T02:56:38.363Z,3.60
2018-03-29T02:58:41.716Z,3.93
2018-03-29T03:00:44.313Z,3.83
2018-03-29T03:02:46.935Z,4.40
2018-03-29T03:04:49.523Z,4.13
2018-03-29T03:06:52.259Z,3.77
2018-03-29T03:08:55.639Z,3.83
2018-03-29T03:10:58.990Z,3.87
2018-03-29T03:13:01.614Z,4.00
2018-03-29T03:15:04.985Z,3.67
2018-03-29T03:17:08.395Z,4.10
2018-03-29T03:19:11.754Z,3.80
2018-03-29T03:21:14.386Z,4.40
2018-03-29T03:23:16.989Z,3.90
2018-03-29T03:25:19.577Z,3.77
2018-03-29T03:27:22.178Z,3.90
2018-03-29T03:29:25.551Z,4.13
2018-03-29T03:31:28.130Z,3.93
2018-03-29T03:33:30.738Z,4.50
2018-03-29T03:35:33.314Z,4.30
2018-03-29T03:37:36.962Z,4.57
2018-03-29T03:39:39.561Z,4.40
2018-03-29T03:41:42.917Z,3.90
2018-03-29T03:43:45.513Z,4.67
2018-03-29T03:45:48.174Z,4.37
2018-03-29T03:47:50.778Z,4.43
2018-03-29T03:49:54.140Z,4.97
2018-03-29T03:51:56.758Z,4.20
2018-03-29T03:54:00.126Z,4.30
2018-03-29T03:56:02.694Z,4.37
2018-03-29T03:58:05.280Z,3.90
2018-03-29T04:00:08.662Z,4.13
2018-03-29T04:02:11.245Z,4.30
2018-03-29T04:04:14.736Z,4.40
2018-03-29T04:06:17.317Z,4.77
2018-03-29T04:08:20.758Z,4.43
2018-03-29T04:10:23.400Z,4.30
2018-03-29T04:12:26.775Z,4.07
2018-03-29T04:14:29.377Z,4.50
2018-03-29T04:16:31.982Z,4.60
2018-03-29T04:18:34.577Z,4.40
2018-03-29T04:20:37.187Z,4.40
2018-03-29T04:22:40.555Z,4.40
2018-03-29T04:24:43.213Z,4.40
2018-03-29T04:26:45.858Z,4.33
2018-03-29T04:28:48.460Z,4.33
2018-03-29T04:30:51.054Z,4.60
2018-03-29T04:32:53.698Z,4.83
2018-03-29T04:34:56.321Z,4.13
2018-03-29T04:36:59.669Z,5.07
2018-03-29T04:39:02.418Z,4.13
2018-03-29T04:41:05.022Z,4.37
2018-03-29T04:43:07.673Z,4.07
2018-03-29T04:45:10.279Z,4.50
2018-03-29T04:47:13.745Z,4.90
2018-03-29T04:49:16.404Z,4.90
2018-03-29T04:51:18.966Z,5.10
2018-03-29T04:53:22.316Z,5.27
2018-03-29T04:55:24.924Z,5.73
2018-03-29T04:57:28.305Z,5.20
2018-03-29T04:59:30.903Z,4.83
2018-03-29T05:01:34.281Z,4.73
2018-03-29T05:03:37.946Z,4.70
2018-03-29T05:05:40.679Z,4.30
2018-03-29T05:07:43.261Z,4.50
2018-03-29T05:09:45.842Z,4.70
2018-03-29T05:11:48.444Z,4.70
2018-03-29T05:13:51.024Z,4.30
2018-03-29T05:15:54.494Z,4.37
2018-03-29T05:17:57.107Z,4.77
2018-03-29T05:19:59.738Z,5.03
2018-03-29T05:22:02.378Z,4.70
2018-03-29T05:24:05.794Z,5.40
2018-03-29T05:26:08.520Z,6.17
2018-03-29T05:28:11.168Z,8.40
2018-03-29T05:30:13.771Z,9.67
2018-03-29T05:32:16.427Z,10.57
2018-03-29T05:34:19.014Z,10.37
2018-03-29T05:36:21.608Z,10.00
2018-03-29T05:38:24.228Z,10.07
2018-03-29T05:40:26.809Z,8.90
2018-03-29T05:42:29.421Z,7.30
2018-03-29T05:44:32.036Z,6.80
2018-03-29T05:46:34.643Z,6.37
2018-03-29T05:48:37.284Z,6.60
2018-03-29T05:50:39.906Z,6.33
2018-03-29T05:52:42.490Z,7.30
2018-03-29T05:54:45.105Z,9.17
2018-03-29T05:56:47.703Z,8.30
2018-03-29T05:58:50.326Z,8.87
2018-03-29T06:00:52.922Z,7.33
2018-03-29T06:02:56.274Z,6.97
2018-03-29T06:04:58.894Z,7.53
2018-03-29T06:07:01.526Z,6.17
2018-03-29T06:09:04.124Z,5.63
2018-03-29T06:11:07.464Z,6.10
2018-03-29T06:13:10.053Z,6.03
2018-03-29T06:15:15.614Z,5.30
2018-03-29T06:17:25.646Z,6.13
2018-03-29T06:19:28.305Z,5.27
2018-03-29T06:21:30.905Z,5.50
2018-03-29T06:23:33.485Z,5.57
2018-03-29T06:25:36.138Z,6.10
2018-03-29T06:27:38.801Z,4.77
2018-03-29T06:29:41.413Z,4.90
2018-03-29T06:31:43.985Z,4.63
2018-03-29T06:33:46.578Z,5.00
2018-03-29T06:35:49.971Z,4.57
2018-03-29T06:37:53.336Z,4.13
2018-03-29T06:39:55.958Z,4.30
2018-03-29T06:41:59.354Z,3.90
2018-03-29T06:44:01.945Z,4.17
2018-03-29T06:46:04.542Z,3.73
2018-03-29T06:48:07.910Z,3.70
2018-03-29T06:50:10.504Z,4.20
2018-03-29T06:52:13.873Z,3.37
2018-03-29T06:54:16.450Z,3.80
2018-03-29T06:56:19.191Z,3.67
2018-03-29T06:58:22.913Z,3.60
2018-03-29T07:00:25.642Z,3.93
2018-03-29T07:02:28.413Z,4.37
2018-03-29T07:04:31.178Z,3.60
2018-03-29T07:06:33.779Z,3.80
2018-03-29T07:08:36.418Z,3.27
2018-03-29T07:10:39.006Z,3.53
2018-03-29T07:12:41.663Z,3.40
2018-03-29T07:14:44.262Z,3.00
2018-03-29T07:16:46.850Z,3.37
2018-03-29T07:18:49.454Z,3.43
2018-03-29T07:20:52.058Z,2.97
2018-03-29T07:22:54.778Z,3.43
2018-03-29T07:24:57.366Z,3.33
2018-03-29T07:26:59.948Z,3.37
2018-03-29T07:29:02.541Z,3.90
2018-03-29T07:31:05.130Z,3.70
2018-03-29T07:33:07.709Z,3.27
2018-03-29T07:35:10.330Z,3.90
2018-03-29T07:37:12.913Z,3.77
2018-03-29T07:39:15.510Z,3.63
2018-03-29T07:41:18.101Z,3.57
2018-03-29T07:43:20.710Z,3.80
2018-03-29T07:45:23.308Z,3.50
2018-03-29T07:47:26.650Z,3.60
2018-03-29T07:49:29.242Z,4.20
2018-03-29T07:51:31.864Z,3.60
2018-03-29T07:53:35.222Z,3.27
2018-03-29T07:55:38.587Z,3.73
2018-03-29T07:57:41.168Z,3.50
2018-03-29T08:01:53.514Z,3.67
2018-03-29T08:03:56.100Z,4.37
2018-03-29T08:05:58.790Z,3.77
2018-03-29T08:08:01.373Z,3.47
2018-03-29T08:10:03.938Z,3.47
2018-03-29T08:12:06.550Z,3.60
2018-03-29T08:14:09.158Z,3.80
2018-03-29T08:16:11.761Z,3.80
2018-03-29T08:18:15.142Z,3.40
2018-03-29T08:20:18.762Z,3.33
2018-03-29T08:22:21.372Z,3.60
2018-03-29T08:24:24.049Z,3.00
2018-03-29T08:26:26.642Z,3.40
2018-03-29T08:28:29.237Z,3.30
2018-03-29T08:30:31.841Z,3.00
2018-03-29T08:32:34.453Z,3.53
2018-03-29T08:34:37.061Z,3.67
2018-03-29T08:36:40.415Z,3.60
2018-03-29T08:38:43.045Z,3.47
2018-03-29T08:40:45.647Z,3.10
2018-03-29T08:42:48.282Z,3.23
2018-03-29T08:44:51.710Z,3.60
2018-03-29T08:46:54.285Z,3.00
2018-03-29T08:48:56.916Z,3.40
2018-03-29T08:51:00.289Z,3.73
2018-03-29T08:53:02.866Z,3.30
2018-03-29T08:55:05.477Z,3.27
2018-03-29T08:57:08.213Z,3.67
2018-03-29T08:59:10.895Z,3.50
2018-03-29T09:01:13.562Z,4.07
2018-03-29T09:03:16.154Z,3.73
2018-03-29T09:05:18.753Z,3.60
2018-03-29T09:07:21.338Z,3.60
2018-03-29T09:09:23.951Z,5.47
2018-03-29T09:11:27.378Z,3.87
2018-03-29T09:13:30.823Z,3.40
2018-03-29T09:15:33.441Z,3.97
2018-03-29T09:17:36.793Z,4.03
2018-03-29T09:19:39.435Z,4.53
2018-03-29T09:21:42.036Z,3.80
2018-03-29T09:23:44.648Z,3.90
2018-03-29T09:25:47.274Z,3.93
2018-03-29T09:27:49.853Z,4.00
2018-03-29T09:29:52.446Z,4.37
2018-03-29T09:31:55.860Z,3.73
2018-03-29T09:33:59.208Z,4.47
2018-03-29T09:36:01.825Z,4.27
2018-03-29T09:38:04.405Z,4.53
2018-03-29T09:40:06.995Z,4.00
2018-03-29T09:42:10.369Z,4.43
2018-03-29T09:44:12.969Z,4.47
2018-03-29T09:46:15.557Z,4.30
2018-03-29T09:48:18.303Z,4.17
2018-03-29T09:50:20.896Z,3.90
2018-03-29T09:52:23.484Z,4.40
2018-03-29T09:54:26.276Z,4.50
2018-03-29T09:56:28.874Z,4.33
2018-03-29T09:58:31.489Z,4.27
2018-03-29T10:00:34.981Z,4.33
2018-03-29T10:02:38.448Z,4.23
2018-03-29T10:04:41.062Z,3.40
2018-03-29T10:06:47.330Z,3.67
2018-03-29T10:08:49.942Z,3.83
2018-03-29T10:10:52.551Z,4.17
2018-03-29T10:12:55.161Z,4.10
2018-03-29T10:14:57.924Z,3.70
2018-03-29T10:17:00.570Z,3.80
2018-03-29T10:19:03.326Z,4.70
2018-03-29T10:21:06.694Z,4.20
2018-03-29T10:23:09.298Z,4.00
2018-03-29T10:25:11.930Z,4.63
2018-03-29T10:27:14.517Z,4.20
2018-03-29T10:29:17.126Z,4.10
2018-03-29T10:31:19.757Z,4.20
2018-03-29T10:33:22.358Z,4.10
2018-03-29T10:35:24.992Z,3.90
2018-03-29T10:37:27.601Z,3.67
2018-03-29T10:39:30.209Z,4.27
2018-03-29T10:41:32.804Z,4.23
2018-03-29T10:43:36.152Z,3.63
2018-03-29T10:45:38.769Z,4.07
2018-03-29T10:47:42.140Z,4.10
2018-03-29T10:49:44.737Z,4.17
2018-03-29T10:51:48.110Z,4.73
2018-03-29T10:53:50.762Z,4.27
2018-03-29T10:55:53.377Z,3.73
2018-03-29T10:57:56.746Z,3.67
2018-03-29T10:59:59.328Z,4.40
2018-03-29T11:02:01.951Z,4.43
2018-03-29T11:04:04.584Z,4.10
2018-03-29T11:08:16.873Z,3.87
2018-03-29T11:10:19.465Z,3.80
2018-03-29T11:12:22.080Z,4.17
2018-03-29T11:14:24.677Z,4.17
2018-03-29T11:16:27.281Z,4.63
2018-03-29T11:18:29.869Z,3.90
2018-03-29T11:20:32.468Z,4.57
2018-03-29T11:22:35.105Z,4.37
2018-03-29T11:24:37.687Z,3.87
2018-03-29T11:26:41.045Z,4.00
2018-03-29T11:28:43.698Z,5.17
2018-03-29T11:30:46.299Z,4.27
2018-03-29T11:32:48.918Z,3.80
2018-03-29T11:34:51.499Z,3.87
2018-03-29T11:36:54.101Z,4.10
2018-03-29T11:38:56.740Z,3.97
2018-03-29T11:41:00.095Z,3.87
2018-03-29T11:43:02.689Z,3.67
2018-03-29T11:45:05.299Z,4.10
2018-03-29T11:47:07.898Z,3.60
2018-03-29T11:49:10.623Z,4.10
2018-03-29T11:51:13.241Z,3.73
2018-03-29T11:53:15.821Z,4.27
2018-03-29T11:55:18.434Z,4.10
2018-03-29T11:57:21.018Z,3.70
2018-03-29T11:59:23.640Z,4.00
2018-03-29T12:01:26.217Z,4.07
2018-03-29T12:03:28.885Z,3.87
2018-03-29T12:05:31.492Z,3.90
2018-03-29T12:07:34.082Z,3.80
2018-03-29T12:09:36.953Z,3.97
2018-03-29T12:11:39.554Z,3.60
2018-03-29T12:13:42.944Z,3.47
2018-03-29T12:15:45.533Z,4.07
2018-03-29T12:17:48.895Z,4.30
2018-03-29T12:19:51.510Z,3.70
2018-03-29T12:21:54.122Z,3.83
2018-03-29T12:23:56.791Z,3.97
2018-03-29T12:25:59.398Z,3.37
2018-03-29T12:28:02.040Z,3.70
2018-03-29T12:30:04.650Z,3.70
2018-03-29T12:32:07.294Z,3.80
2018-03-29T12:34:10.649Z,3.50
2018-03-29T12:36:13.237Z,3.97
2018-03-29T12:38:16.630Z,3.63
2018-03-29T12:40:19.238Z,3.67
2018-03-29T12:42:21.849Z,3.70
2018-03-29T12:44:25.254Z,3.73
2018-03-29T12:46:27.856Z,3.50
2018-03-29T12:48:30.466Z,3.83
2018-03-29T12:50:33.134Z,3.73
2018-03-29T12:52:35.723Z,3.50
2018-03-29T12:54:50.150Z,3.40
2018-03-29T12:57:04.530Z,3.70
2018-03-29T12:59:07.134Z,3.33
2018-03-29T13:01:09.785Z,3.53
2018-03-29T13:03:12.382Z,3.93
2018-03-29T13:05:15.817Z,3.83
2018-03-29T13:07:18.398Z,3.20
2018-03-29T13:09:21.040Z,2.90
2018-03-29T13:11:23.677Z,3.30
2018-03-29T13:13:26.270Z,3.17
2018-03-29T13:15:28.933Z,3.40
2018-03-29T13:17:31.525Z,3.60
2018-03-29T13:19:34.121Z,3.63
2018-03-29T13:21:37.482Z,3.60
2018-03-29T13:23:40.840Z,3.00
2018-03-29T13:25:43.426Z,3.43
2018-03-29T13:27:46.071Z,3.40
2018-03-29T13:29:48.721Z,3.47
2018-03-29T13:31:52.074Z,2.90
2018-03-29T13:33:55.525Z,3.40
2018-03-29T13:35:58.113Z,3.20
2018-03-29T13:38:01.489Z,3.20
2018-03-29T13:40:04.884Z,3.30
2018-03-29T13:42:07.496Z,3.27
2018-03-29T13:44:10.996Z,3.30
2018-03-29T13:46:14.386Z,3.40
2018-03-29T13:48:17.794Z,3.30
2018-03-29T13:50:21.141Z,3.03
2018-03-29T13:52:23.797Z,3.27
2018-03-29T13:54:26.405Z,3.77
2018-03-29T13:56:29.023Z,3.40
2018-03-29T13:58:31.602Z,3.20
2018-03-29T14:00:34.214Z,3.30
2018-03-29T14:02:36.789Z,2.83
2018-03-29T14:04:39.492Z,3.40
2018-03-29T14:06:42.849Z,3.90
2018-03-29T14:08:45.449Z,3.27
2018-03-29T14:10:48.065Z,3.00
2018-03-29T14:12:50.658Z,4.20
2018-03-29T14:14:53.282Z,4.10
2018-03-29T14:16:55.869Z,2.87
2018-03-29T14:18:59.233Z,3.77
2018-03-29T14:21:01.855Z,3.30
2018-03-29T14:23:04.469Z,3.00
2018-03-29T14:25:07.100Z,3.17
2018-03-29T14:27:09.705Z,2.63
2018-03-29T14:29:12.305Z,3.43
2018-03-29T14:31:14.944Z,2.93
2018-03-29T14:33:17.542Z,3.10
2018-03-29T14:35:20.133Z,3.57
2018-03-29T14:37:22.745Z,3.07
2018-03-29T14:39:25.347Z,2.87
2018-03-29T14:41:27.991Z,2.70
2018-03-29T14:43:30.574Z,2.80
2018-03-29T14:45:33.203Z,3.00
2018-03-29T14:47:35.808Z,2.80
2018-03-29T14:49:39.169Z,6.80
2018-03-29T14:51:41.861Z,3.67
2018-03-29T14:53:44.498Z,2.30
2018-03-29T14:55:47.093Z,2.83
2018-03-29T14:57:49.705Z,2.40
2018-03-29T14:59:52.336Z,2.90
2018-03-29T15:01:54.929Z,3.07
2018-03-29T15:03:57.582Z,2.60
2018-03-29T15:06:00.170Z,2.40
2018-03-29T15:08:02.815Z,5.30
2018-03-29T15:10:06.153Z,3.63
2018-03-29T15:12:09.526Z,11.00
2018-03-29T15:14:12.135Z,2.67
2018-03-29T15:16:14.747Z,2.57
2018-03-29T15:18:17.342Z,2.33
2018-03-29T15:20:19.947Z,2.00
2018-03-29T15:22:22.646Z,2.40
2018-03-29T15:24:25.269Z,2.60
2018-03-29T15:26:27.897Z,4.43
2018-03-29T15:28:31.243Z,2.30
2018-03-29T15:30:33.896Z,2.10
2018-03-29T15:32:36.484Z,2.30
2018-03-29T15:34:39.115Z,1.63
2018-03-29T15:36:41.722Z,1.90
2018-03-29T15:38:44.362Z,2.23
2018-03-29T15:40:46.985Z,2.67
2018-03-29T15:42:49.643Z,2.00
2018-03-29T15:44:52.225Z,1.90
2018-03-29T15:46:54.834Z,1.83
2018-03-29T15:48:58.216Z,1.93
2018-03-29T15:51:01.573Z,1.90
2018-03-29T15:53:04.197Z,2.00
2018-03-29T15:55:07.548Z,1.70
2018-03-29T15:57:10.126Z,1.73
2018-03-29T15:59:12.762Z,2.03
2018-03-29T16:01:15.359Z,1.77
2018-03-29T16:03:18.000Z,2.10
2018-03-29T16:05:20.596Z,1.80
2018-03-29T16:07:23.288Z,5.37
2018-03-29T16:09:25.932Z,3.50
2018-03-29T16:11:28.537Z,2.37
2018-03-29T16:13:31.153Z,2.93
2018-03-29T16:15:34.547Z,2.07
2018-03-29T16:17:37.905Z,1.97
2018-03-29T16:19:40.570Z,1.80
2018-03-29T16:21:43.219Z,1.93
2018-03-29T16:23:45.862Z,2.00
2018-03-29T16:25:49.217Z,1.90
2018-03-29T16:27:51.861Z,1.77
2018-03-29T16:29:54.480Z,1.90
2018-03-29T16:31:57.093Z,2.10
2018-03-29T16:34:00.496Z,2.73
2018-03-29T16:36:03.090Z,2.10
2018-03-29T16:38:06.469Z,1.87
2018-03-29T16:40:09.866Z,1.73
2018-03-29T16:42:12.477Z,2.27
2018-03-29T16:44:15.360Z,2.40
2018-03-29T16:46:18.169Z,2.27
2018-03-29T16:48:21.553Z,2.10
2018-03-29T16:50:24.141Z,2.30
2018-03-29T16:52:27.519Z,2.00
2018-03-29T16:54:30.143Z,1.93
2018-03-29T16:56:32.777Z,2.23
2018-03-29T16:58:36.160Z,2.60
2018-03-29T17:00:38.742Z,2.40
2018-03-29T17:02:42.161Z,2.20
2018-03-29T17:04:44.742Z,2.53
2018-03-29T17:06:47.358Z,2.20
2018-03-29T17:08:50.101Z,2.87
2018-03-29T17:10:52.713Z,2.30
2018-03-29T17:12:55.339Z,4.97
2018-03-29T17:14:57.953Z,10.87
2018-03-29T17:17:00.564Z,3.60
2018-03-29T17:19:03.930Z,10.57
2018-03-29T17:21:06.538Z,2.87
2018-03-29T17:23:09.920Z,3.70
2018-03-29T17:25:12.573Z,2.60
2018-03-29T17:27:15.197Z,2.67
2018-03-29T17:29:17.810Z,2.67
2018-03-29T17:31:20.415Z,3.10
2018-03-29T17:33:23.009Z,2.70
2018-03-29T17:35:26.369Z,2.67
2018-03-29T17:37:28.989Z,2.10
2018-03-29T17:39:31.585Z,2.07
2018-03-29T17:41:34.181Z,2.50
2018-03-29T17:43:36.818Z,2.20
2018-03-29T17:45:39.401Z,2.10
2018-03-29T17:47:41.989Z,2.37
2018-03-29T17:49:44.699Z,2.57
2018-03-29T17:51:47.309Z,1.87
2018-03-29T17:53:49.909Z,2.27
2018-03-29T17:55:52.560Z,2.03
2018-03-29T17:57:55.261Z,1.80
2018-03-29T17:59:57.873Z,2.00
2018-03-29T18:02:00.460Z,2.57
2018-03-29T18:04:03.840Z,2.10
2018-03-29T18:06:06.798Z,2.27
2018-03-29T18:08:09.417Z,1.87
2018-03-29T18:10:12.839Z,2.10
2018-03-29T18:12:15.481Z,2.00
2018-03-29T18:14:18.845Z,2.47
2018-03-29T18:16:21.455Z,2.20
2018-03-29T18:18:24.083Z,2.00
2018-03-29T18:20:26.676Z,2.50
2018-03-29T18:22:29.280Z,2.80
2018-03-29T18:24:31.881Z,3.20
2018-03-29T18:26:34.784Z,4.33
2018-03-29T18:28:37.374Z,4.30
2018-03-29T18:30:39.966Z,3.90
2018-03-29T18:32:42.645Z,3.60
2018-03-29T18:34:45.338Z,3.27
2018-03-29T18:36:47.946Z,3.27
2018-03-29T18:38:50.554Z,3.23
2018-03-29T18:40:53.170Z,3.20
2018-03-29T18:42:55.886Z,3.63
2018-03-29T18:44:58.495Z,3.30
2018-03-29T18:47:01.869Z,3.77
2018-03-29T18:49:04.457Z,3.80
2018-03-29T18:51:07.066Z,4.40
2018-03-29T18:53:09.698Z,4.33
2018-03-29T18:55:12.400Z,11.63
2018-03-29T18:57:15.753Z,4.30
2018-03-29T18:59:18.345Z,4.70
2018-03-29T19:01:21.066Z,7.63
2018-03-29T19:03:23.770Z,5.20
2018-03-29T19:05:26.387Z,5.80
2018-03-29T19:07:29.754Z,5.77
2018-03-29T19:09:32.399Z,5.10
2018-03-29T19:11:35.044Z,4.00
2018-03-29T19:13:37.671Z,5.93
2018-03-29T19:15:40.322Z,7.10
2018-03-29T19:17:43.046Z,6.77
2018-03-29T19:19:46.501Z,8.17
2018-03-29T19:21:49.098Z,7.10
2018-03-29T19:23:51.689Z,7.63
2018-03-29T19:25:54.333Z,7.77
2018-03-29T19:27:56.961Z,6.43
2018-03-29T19:30:00.411Z,6.70
2018-03-29T19:32:03.811Z,6.60
2018-03-29T19:34:06.429Z,6.83
2018-03-29T19:36:09.108Z,5.90
2018-03-29T19:38:11.713Z,5.37
2018-03-29T19:40:14.315Z,4.40
2018-03-29T19:42:16.952Z,4.23
2018-03-29T19:44:19.549Z,5.60
2018-03-29T19:46:22.187Z,6.60
2018-03-29T19:48:24.801Z,11.20
2018-03-29T19:50:27.419Z,10.73
2018-03-29T19:52:30.044Z,7.93
2018-03-29T19:54:32.641Z,10.07
2018-03-29T19:56:35.291Z,8.50
2018-03-29T19:58:37.916Z,8.50
2018-03-29T20:00:40.588Z,7.47
2018-03-29T20:02:43.973Z,8.13
2018-03-29T20:04:47.354Z,8.83
2018-03-29T20:06:49.962Z,7.30
2018-03-29T20:08:52.554Z,6.00
2018-03-29T20:10:55.160Z,5.73
2018-03-29T20:12:57.781Z,6.00
2018-03-29T20:15:00.366Z,5.90
2018-03-29T20:17:03.027Z,5.50
2018-03-29T20:19:05.638Z,5.30
2018-03-29T20:21:08.234Z,5.67
2018-03-29T20:23:10.825Z,6.30
2018-03-29T20:25:13.431Z,6.67
2018-03-29T20:27:16.037Z,6.10
2018-03-29T20:29:18.656Z,6.50
2018-03-29T20:31:22.108Z,5.73
2018-03-29T20:33:24.737Z,5.77
2018-03-29T20:35:28.111Z,4.97
2018-03-29T20:37:30.734Z,5.17
2018-03-29T20:39:33.353Z,4.53
2018-03-29T20:41:35.961Z,4.87
2018-03-29T20:43:38.589Z,6.83
2018-03-29T20:45:41.231Z,5.93
2018-03-29T20:47:43.829Z,10.17
2018-03-29T20:49:46.417Z,8.10
2018-03-29T20:51:49.010Z,7.43
2018-03-29T20:53:52.390Z,4.53
2018-03-29T20:55:55.034Z,4.37
2018-03-29T20:57:57.631Z,3.47
2018-03-29T21:00:00.230Z,3.43
2018-03-29T21:02:03.632Z,3.73
2018-03-29T21:04:07.008Z,3.93
2018-03-29T21:06:10.390Z,3.40
2018-03-29T21:08:12.978Z,3.70
2018-03-29T21:10:15.582Z,3.40
2018-03-29T21:12:18.194Z,5.50
2018-03-29T21:14:21.088Z,3.90
2018-03-29T21:16:23.789Z,3.63
2018-03-29T21:18:26.343Z,3.80
2018-03-29T21:20:30.444Z,3.47
2018-03-29T21:22:33.061Z,3.40
2018-03-29T21:24:36.420Z,3.17
2018-03-29T21:26:39.126Z,3.60
2018-03-29T21:28:41.753Z,3.83
2018-03-29T21:30:44.357Z,4.47
2018-03-29T21:32:47.742Z,4.30
2018-03-29T21:34:50.346Z,4.00
2018-03-29T21:36:53.768Z,4.50
2018-03-29T21:38:56.518Z,4.40
2018-03-29T21:40:59.121Z,4.67
2018-03-29T21:43:01.739Z,4.53
2018-03-29T21:45:04.394Z,4.80
2018-03-29T21:47:06.995Z,4.40
2018-03-29T21:49:10.357Z,5.10
2018-03-29T21:51:13.256Z,5.40
2018-03-29T21:53:15.841Z,5.03
2018-03-29T21:55:18.539Z,5.20
2018-03-29T21:57:21.883Z,5.90
2018-03-29T21:59:24.484Z,6.67
2018-03-29T22:01:27.113Z,5.87
2018-03-29T22:03:29.710Z,5.97
2018-03-29T22:05:32.319Z,5.87
2018-03-29T22:07:35.673Z,5.77
2018-03-29T22:09:38.271Z,6.43
2018-03-29T22:11:40.880Z,7.30
2018-03-29T22:13:50.201Z,7.60
2018-03-29T22:15:53.574Z,7.20
2018-03-29T22:17:56.166Z,6.93
2018-03-29T22:19:58.767Z,6.50
2018-03-29T22:22:01.391Z,6.87
2018-03-29T22:24:04.115Z,7.40
2018-03-29T22:26:06.820Z,7.13
2018-03-29T22:28:09.414Z,7.73
2018-03-29T22:30:12.010Z,10.00
2018-03-29T22:32:15.417Z,10.47
2018-03-29T22:34:18.139Z,12.60
2018-03-29T22:36:20.751Z,12.67
2018-03-29T22:38:24.134Z,10.63
2018-03-29T22:40:27.496Z,9.47
2018-03-29T22:42:30.101Z,8.23
2018-03-29T22:44:33.457Z,8.83
2018-03-29T22:46:36.802Z,9.70
2018-03-29T22:48:40.186Z,10.03
2018-03-29T22:50:43.571Z,10.63
2018-03-29T22:52:46.998Z,13.07
2018-03-29T22:54:49.617Z,9.63
2018-03-29T22:56:53.836Z,9.17
2018-03-29T22:58:56.486Z,8.47
2018-03-29T23:00:59.079Z,8.37
2018-03-29T23:03:01.706Z,7.70
2018-03-29T23:05:04.437Z,6.87
2018-03-29T23:07:07.028Z,6.70
2018-03-29T23:09:10.414Z,6.90
2018-03-29T23:11:13.009Z,7.07
2018-03-29T23:13:16.353Z,7.23
2018-03-29T23:15:19.721Z,7.37
2018-03-29T23:17:22.312Z,7.40
2018-03-29T23:19:24.914Z,7.27
2018-03-29T23:21:27.522Z,7.83
2018-03-29T23:23:30.101Z,6.93
2018-03-29T23:25:32.729Z,6.70
2018-03-29T23:27:35.374Z,7.23
2018-03-29T23:29:37.977Z,7.63
2018-03-29T23:31:40.580Z,7.07
2018-03-29T23:33:43.949Z,9.47
2018-03-29T23:35:46.566Z,8.37
2018-03-29T23:37:49.178Z,8.47
2018-03-29T23:39:51.789Z,8.83
2018-03-29T23:41:54.469Z,10.20
2018-03-29T23:43:57.821Z,11.67
2018-03-29T23:46:00.472Z,12.60
2018-03-29T23:48:03.065Z,11.13
2018-03-29T23:50:05.674Z,10.90
2018-03-29T23:52:08.302Z,11.10
2018-03-29T23:54:10.909Z,10.93
2018-03-29T23:56:13.513Z,9.10
2018-03-29T23:58:17.762Z,9.23
